createdAt,value
2023-05-04T00:00:18.477Z,21.93
2023-05-04T00:01:18.564Z,21.96
2023-05-04T00:02:18.560Z,21.99
2023-05-04T00:03:18.643Z,21.99
2023-05-04T00:04:18.654Z,22.01
2023-05-04T00:05:18.612Z,22.01
2023-05-04T00:06:18.653Z,22.02
2023-05-04T00:07:18.698Z,22.02
2023-05-04T00:08:18.729Z,22.03
2023-05-04T00:09:18.771Z,22.02
2023-05-04T00:10:18.819Z,22.02
2023-05-04T00:11:18.875Z,22.02
2023-05-04T00:12:18.897Z,22.03
2023-05-04T00:13:18.966Z,22.02
2023-05-04T00:14:18.975Z,22.03
2023-05-04T00:15:19.024Z,22.02
2023-05-04T00:16:19.124Z,22.03
2023-05-04T00:17:19.136Z,22.02
2023-05-04T00:18:19.161Z,22.02
2023-05-04T00:19:19.217Z,22.02
2023-05-04T00:20:19.269Z,22.02
2023-05-04T00:21:19.295Z,22.01
2023-05-04T00:22:19.444Z,22.02
2023-05-04T00:23:19.458Z,22.02
2023-05-04T00:24:19.442Z,22.02
2023-05-04T00:25:19.497Z,22.02
2023-05-04T00:26:19.548Z,22.01
2023-05-04T00:27:19.578Z,22.01
2023-05-04T00:28:19.628Z,22.01
2023-05-04T00:29:19.701Z,22.00
2023-05-04T00:30:19.734Z,22.01
2023-05-04T00:31:19.845Z,22.01
2023-05-04T00:32:19.831Z,22.01
2023-05-04T00:33:19.878Z,22.01
2023-05-04T00:34:19.913Z,22.01
2023-05-04T00:35:19.973Z,22.00
2023-05-04T00:36:20.029Z,22.00
2023-05-04T00:37:20.095Z,22.00
2023-05-04T00:38:20.127Z,22.00
2023-05-04T00:39:20.184Z,22.00
2023-05-04T00:40:20.233Z,22.00
2023-05-04T00:41:20.288Z,22.00
2023-05-04T00:42:20.331Z,21.99
2023-05-04T00:43:20.391Z,22.00
2023-05-04T00:44:20.445Z,21.99
2023-05-04T00:45:20.512Z,21.99
2023-05-04T00:46:20.523Z,21.99
2023-05-04T00:47:20.592Z,21.99
2023-05-04T00:48:20.627Z,21.98
2023-05-04T00:49:20.676Z,21.99
2023-05-04T00:50:20.734Z,21.98
2023-05-04T00:51:20.799Z,21.98
2023-05-04T00:52:20.870Z,21.98
2023-05-04T00:53:20.881Z,21.98
2023-05-04T00:54:20.952Z,21.98
2023-05-04T00:55:21.000Z,21.98
2023-05-04T00:56:21.032Z,21.98
2023-05-04T00:57:21.088Z,21.97
2023-05-04T00:58:21.145Z,21.97
2023-05-04T00:59:21.188Z,21.97
2023-05-04T01:00:21.248Z,21.97
2023-05-04T01:01:21.358Z,21.97
2023-05-04T01:02:21.356Z,21.97
2023-05-04T01:03:21.466Z,21.96
2023-05-04T01:04:21.446Z,21.96
2023-05-04T01:05:21.513Z,21.96
2023-05-04T01:06:21.558Z,21.96
2023-05-04T01:07:21.628Z,21.96
2023-05-04T01:08:21.666Z,21.96
2023-05-04T01:09:21.725Z,21.95
2023-05-04T01:10:21.772Z,21.95
2023-05-04T01:11:21.820Z,21.94
2023-05-04T01:12:21.881Z,21.95
2023-05-04T01:13:21.925Z,21.94
2023-05-04T01:14:21.985Z,21.94
2023-05-04T01:15:22.038Z,21.94
2023-05-04T01:16:22.118Z,21.94
2023-05-04T01:17:22.177Z,21.94
2023-05-04T01:18:22.224Z,21.94
2023-05-04T01:19:22.265Z,21.94
2023-05-04T01:20:22.385Z,21.94
2023-05-04T01:21:22.381Z,21.93
2023-05-04T01:22:22.452Z,21.94
2023-05-04T01:23:22.482Z,21.93
2023-05-04T01:24:22.534Z,21.93
2023-05-04T01:25:22.609Z,21.93
2023-05-04T01:26:22.653Z,21.93
2023-05-04T01:27:22.710Z,21.92
2023-05-04T01:28:22.770Z,21.93
2023-05-04T01:29:22.839Z,21.92
2023-05-04T01:30:22.892Z,21.92
2023-05-04T01:31:22.976Z,21.92
2023-05-04T01:32:23.091Z,21.92
2023-05-04T01:33:23.077Z,21.92
2023-05-04T01:34:23.108Z,21.92
2023-05-04T01:35:23.183Z,21.91
2023-05-04T01:36:23.226Z,21.91
2023-05-04T01:37:23.285Z,21.91
2023-05-04T01:38:23.355Z,21.92
2023-05-04T01:39:23.417Z,21.91
2023-05-04T01:40:23.483Z,21.90
2023-05-04T01:41:23.545Z,21.90
2023-05-04T01:42:23.607Z,21.90
2023-05-04T01:43:23.662Z,21.90
2023-05-04T01:44:23.738Z,21.90
2023-05-04T01:45:23.793Z,21.89
2023-05-04T01:46:23.913Z,21.89
2023-05-04T01:47:23.974Z,21.90
2023-05-04T01:48:23.980Z,21.90
2023-05-04T01:49:24.071Z,21.88
2023-05-04T01:50:24.102Z,21.88
2023-05-04T01:51:24.217Z,21.88
2023-05-04T01:52:24.291Z,21.88
2023-05-04T01:53:24.299Z,21.88
2023-05-04T01:54:24.360Z,21.88
2023-05-04T01:55:25.029Z,21.88
2023-05-04T01:56:24.487Z,21.88
2023-05-04T01:57:24.549Z,21.87
2023-05-04T01:58:24.661Z,21.88
2023-05-04T01:59:24.669Z,21.88
2023-05-04T02:00:24.733Z,21.88
2023-05-04T02:01:24.837Z,21.88
2023-05-04T02:02:24.860Z,21.88
2023-05-04T02:03:24.995Z,21.88
2023-05-04T02:04:24.971Z,21.87
2023-05-04T02:05:25.068Z,21.87
2023-05-04T02:06:25.103Z,21.87
2023-05-04T02:07:25.162Z,21.87
2023-05-04T02:08:25.219Z,21.87
2023-05-04T02:09:25.293Z,21.87
2023-05-04T02:10:25.351Z,21.87
2023-05-04T02:11:25.401Z,21.87
2023-05-04T02:12:25.472Z,21.86
2023-05-04T02:13:25.542Z,21.86
2023-05-04T02:14:25.601Z,21.86
2023-05-04T02:15:25.679Z,21.85
2023-05-04T02:16:25.788Z,21.85
2023-05-04T02:17:26.587Z,21.85
2023-05-04T02:18:25.871Z,21.85
2023-05-04T02:19:25.932Z,21.85
2023-05-04T02:20:25.989Z,21.86
2023-05-04T02:21:26.084Z,21.85
2023-05-04T02:22:26.135Z,21.85
2023-05-04T02:23:26.188Z,21.85
2023-05-04T02:24:26.259Z,21.85
2023-05-04T02:25:26.319Z,21.84
2023-05-04T02:26:26.363Z,21.85
2023-05-04T02:27:26.437Z,21.85
2023-05-04T02:28:26.475Z,21.83
2023-05-04T02:29:26.547Z,21.83
2023-05-04T02:30:26.604Z,21.84
2023-05-04T02:31:26.661Z,21.83
2023-05-04T02:32:26.741Z,21.83
2023-05-04T02:33:26.752Z,21.83
2023-05-04T02:34:26.797Z,21.83
2023-05-04T02:35:26.846Z,21.83
2023-05-04T02:36:26.897Z,21.82
2023-05-04T02:37:26.967Z,21.82
2023-05-04T02:38:26.985Z,21.82
2023-05-04T02:39:27.032Z,21.82
2023-05-04T02:40:27.074Z,21.83
2023-05-04T02:41:28.040Z,21.82
2023-05-04T02:42:27.153Z,21.82
2023-05-04T02:43:27.239Z,21.81
2023-05-04T02:44:27.248Z,21.82
2023-05-04T02:45:27.321Z,21.81
2023-05-04T02:46:27.339Z,21.81
2023-05-04T02:47:27.392Z,21.81
2023-05-04T02:48:27.375Z,21.81
2023-05-04T02:49:27.420Z,21.81
2023-05-04T02:50:27.450Z,21.81
2023-05-04T02:51:27.488Z,21.81
2023-05-04T02:52:27.536Z,21.81
2023-05-04T02:53:27.571Z,21.80
2023-05-04T02:54:27.576Z,21.81
2023-05-04T02:55:27.615Z,21.81
2023-05-04T02:56:27.639Z,21.81
2023-05-04T02:57:27.684Z,21.81
2023-05-04T02:58:27.687Z,21.81
2023-05-04T02:59:27.734Z,21.81
2023-05-04T03:00:27.770Z,21.81
2023-05-04T03:01:27.825Z,21.80
2023-05-04T03:02:27.816Z,21.80
2023-05-04T03:03:27.830Z,21.80
2023-05-04T03:04:27.885Z,21.81
2023-05-04T03:05:27.883Z,21.79
2023-05-04T03:06:27.889Z,21.79
2023-05-04T03:07:27.925Z,21.79
2023-05-04T03:08:27.932Z,21.79
2023-05-04T03:09:27.979Z,21.79
2023-05-04T03:10:27.978Z,21.79
2023-05-04T03:11:27.992Z,21.79
2023-05-04T03:12:28.050Z,21.79
2023-05-04T03:13:28.038Z,21.78
2023-05-04T03:14:28.042Z,21.78
2023-05-04T03:15:28.056Z,21.78
2023-05-04T03:16:28.179Z,21.78
2023-05-04T03:17:28.179Z,21.79
2023-05-04T03:18:28.130Z,21.78
2023-05-04T03:19:28.129Z,21.78
2023-05-04T03:20:28.145Z,21.78
2023-05-04T03:21:28.171Z,21.78
2023-05-04T03:22:28.221Z,21.77
2023-05-04T03:23:28.191Z,21.78
2023-05-04T03:24:28.212Z,21.78
2023-05-04T03:25:28.253Z,21.78
2023-05-04T03:26:28.231Z,21.77
2023-05-04T03:27:28.252Z,21.77
2023-05-04T03:28:28.295Z,21.76
2023-05-04T03:29:28.296Z,21.77
2023-05-04T03:30:28.309Z,21.77
2023-05-04T03:31:28.394Z,21.77
2023-05-04T03:32:28.385Z,21.77
2023-05-04T03:33:28.372Z,21.77
2023-05-04T03:34:28.387Z,21.76
2023-05-04T03:35:28.420Z,21.77
2023-05-04T03:36:28.468Z,21.76
2023-05-04T03:37:28.483Z,21.76
2023-05-04T03:38:28.525Z,21.75
2023-05-04T03:39:28.499Z,21.76
2023-05-04T03:40:28.515Z,21.77
2023-05-04T03:41:28.550Z,21.75
2023-05-04T03:42:28.530Z,21.76
2023-05-04T03:43:28.538Z,21.76
2023-05-04T03:44:28.551Z,21.76
2023-05-04T03:45:28.621Z,21.76
2023-05-04T03:46:28.599Z,21.75
2023-05-04T03:47:28.605Z,21.75
2023-05-04T03:48:28.601Z,21.75
2023-05-04T03:49:28.600Z,21.75
2023-05-04T03:50:28.624Z,21.75
2023-05-04T03:51:28.667Z,21.75
2023-05-04T03:52:28.696Z,21.75
2023-05-04T03:53:28.733Z,21.75
2023-05-04T03:54:28.742Z,21.75
2023-05-04T03:55:28.756Z,21.75
2023-05-04T03:56:28.755Z,21.75
2023-05-04T03:57:28.788Z,21.74
2023-05-04T03:58:28.767Z,21.74
2023-05-04T03:59:28.776Z,21.74
2023-05-04T04:00:28.773Z,21.73
2023-05-04T04:01:28.793Z,21.74
2023-05-04T04:02:28.919Z,21.73
2023-05-04T04:03:28.930Z,21.73
2023-05-04T04:04:28.899Z,21.74
2023-05-04T04:05:28.822Z,21.74
2023-05-04T04:06:28.834Z,21.73
2023-05-04T04:07:28.834Z,21.74
2023-05-04T04:08:28.839Z,21.74
2023-05-04T04:09:28.844Z,21.73
2023-05-04T04:10:28.878Z,21.73
2023-05-04T04:11:28.887Z,21.73
2023-05-04T04:12:28.898Z,21.73
2023-05-04T04:13:28.930Z,21.73
2023-05-04T04:14:28.891Z,21.73
2023-05-04T04:15:28.899Z,21.73
2023-05-04T04:16:28.952Z,21.74
2023-05-04T04:17:28.955Z,21.73
2023-05-04T04:18:28.931Z,21.73
2023-05-04T04:19:28.945Z,21.74
2023-05-04T04:20:28.968Z,21.73
2023-05-04T04:21:28.977Z,21.73
2023-05-04T04:22:28.992Z,21.73
2023-05-04T04:23:29.008Z,21.73
2023-05-04T04:24:29.033Z,21.73
2023-05-04T04:25:29.054Z,21.73
2023-05-04T04:26:29.053Z,21.73
2023-05-04T04:27:29.052Z,21.73
2023-05-04T04:28:29.057Z,21.74
2023-05-04T04:29:29.103Z,21.73
2023-05-04T04:30:29.082Z,21.73
2023-05-04T04:31:29.111Z,21.73
2023-05-04T04:32:29.191Z,21.73
2023-05-04T04:33:29.149Z,21.74
2023-05-04T04:34:29.193Z,21.74
2023-05-04T04:35:29.216Z,21.73
2023-05-04T04:36:29.207Z,21.74
2023-05-04T04:37:29.218Z,21.73
2023-05-04T04:38:29.217Z,21.73
2023-05-04T04:39:29.257Z,21.73
2023-05-04T04:40:29.219Z,21.73
2023-05-04T04:41:29.240Z,21.73
2023-05-04T04:42:29.224Z,21.73
2023-05-04T04:43:29.230Z,21.74
2023-05-04T04:44:29.238Z,21.74
2023-05-04T04:45:29.775Z,21.74
2023-05-04T04:46:29.304Z,21.74
2023-05-04T04:47:29.287Z,21.74
2023-05-04T04:48:29.287Z,21.74
2023-05-04T04:49:29.299Z,21.74
2023-05-04T04:50:29.334Z,21.74
2023-05-04T04:51:29.352Z,21.74
2023-05-04T04:52:29.374Z,21.74
2023-05-04T04:53:29.381Z,21.73
2023-05-04T04:54:29.390Z,21.74
2023-05-04T04:55:29.415Z,21.73
2023-05-04T04:56:29.438Z,21.74
2023-05-04T04:57:31.726Z,21.74
2023-05-04T04:58:29.452Z,21.74
2023-05-04T04:59:29.453Z,21.73
2023-05-04T05:00:29.444Z,21.73
2023-05-04T05:01:29.609Z,21.74
2023-05-04T05:02:29.484Z,21.74
2023-05-04T05:03:29.417Z,21.74
2023-05-04T05:04:29.481Z,21.74
2023-05-04T05:05:31.572Z,21.74
2023-05-04T05:06:29.409Z,21.73
2023-05-04T05:07:29.399Z,21.74
2023-05-04T05:08:29.394Z,21.73
2023-05-04T05:09:29.382Z,21.73
2023-05-04T05:10:29.384Z,21.73
2023-05-04T05:11:29.365Z,21.73
2023-05-04T05:12:29.362Z,21.73
2023-05-04T05:13:29.361Z,21.73
2023-05-04T05:14:29.353Z,21.74
2023-05-04T05:15:29.355Z,21.73
2023-05-04T05:16:29.337Z,21.73
2023-05-04T05:17:29.409Z,21.73
2023-05-04T05:18:29.419Z,21.74
2023-05-04T05:19:29.321Z,21.73
2023-05-04T05:20:29.305Z,21.73
2023-05-04T05:21:29.317Z,21.74
2023-05-04T05:22:29.616Z,21.74
2023-05-04T05:23:29.283Z,21.74
2023-05-04T05:24:29.297Z,21.74
2023-05-04T05:25:30.155Z,21.74
2023-05-04T05:26:29.295Z,21.74
2023-05-04T05:27:29.294Z,21.74
2023-05-04T05:28:29.624Z,21.74
2023-05-04T05:29:29.290Z,21.75
2023-05-04T05:30:29.281Z,21.74
2023-05-04T05:31:29.335Z,21.75
2023-05-04T05:32:29.273Z,21.75
2023-05-04T05:33:29.282Z,21.76
2023-05-04T05:34:29.245Z,21.75
2023-05-04T05:35:29.228Z,21.75
2023-05-04T05:36:29.222Z,21.75
2023-05-04T05:37:29.655Z,21.75
2023-05-04T05:38:29.194Z,21.75
2023-05-04T05:39:29.203Z,21.75
2023-05-04T05:40:29.203Z,21.76
2023-05-04T05:41:29.192Z,21.77
2023-05-04T05:42:29.182Z,21.76
2023-05-04T05:43:29.661Z,21.78
2023-05-04T05:44:30.153Z,21.78
2023-05-04T05:45:29.170Z,21.79
2023-05-04T05:46:29.206Z,21.79
2023-05-04T05:47:29.212Z,21.80
2023-05-04T05:48:29.827Z,21.82
2023-05-04T05:49:29.245Z,21.84
2023-05-04T05:50:36.682Z,21.85
2023-05-04T05:51:29.257Z,21.86
2023-05-04T05:52:29.663Z,21.86
2023-05-04T05:53:29.661Z,21.88
2023-05-04T05:54:37.130Z,21.90
2023-05-04T05:55:29.636Z,21.90
2023-05-04T05:56:44.820Z,21.92
2023-05-04T05:57:36.640Z,21.92
2023-05-04T05:58:29.194Z,21.93
2023-05-04T05:59:29.192Z,21.93
2023-05-04T06:00:45.253Z,21.94
2023-05-04T06:01:29.189Z,21.95
2023-05-04T06:02:32.899Z,21.95
2023-05-04T06:03:36.666Z,21.94
2023-05-04T06:04:32.498Z,21.94
2023-05-04T06:05:30.162Z,21.93
2023-05-04T06:06:45.921Z,21.93
2023-05-04T06:07:36.522Z,21.92
2023-05-04T06:08:29.435Z,21.91
2023-05-04T06:09:29.101Z,21.91
2023-05-04T06:10:29.137Z,21.91
2023-05-04T06:11:29.095Z,21.91
2023-05-04T06:12:32.367Z,21.90
2023-05-04T06:13:29.261Z,21.89
2023-05-04T06:14:30.455Z,21.89
2023-05-04T06:15:29.059Z,21.89
2023-05-04T06:16:29.156Z,21.89
2023-05-04T06:17:29.232Z,21.88
2023-05-04T06:18:29.236Z,21.88
2023-05-04T06:19:36.768Z,21.88
2023-05-04T06:20:29.289Z,21.88
2023-05-04T06:21:29.286Z,21.87
2023-05-04T06:22:29.645Z,21.87
2023-05-04T06:23:29.249Z,21.87
2023-05-04T06:24:29.234Z,21.87
2023-05-04T06:25:29.237Z,21.86
2023-05-04T06:26:29.228Z,21.87
2023-05-04T06:27:29.238Z,21.86
2023-05-04T06:28:29.213Z,21.86
2023-05-04T06:29:29.201Z,21.87
2023-05-04T06:30:29.261Z,21.86
2023-05-04T06:31:29.229Z,21.86
2023-05-04T06:32:29.769Z,21.86
2023-05-04T06:33:29.182Z,21.86
2023-05-04T06:34:29.164Z,21.86
2023-05-04T06:35:32.431Z,21.86
2023-05-04T06:36:29.153Z,21.85
2023-05-04T06:37:29.154Z,21.86
2023-05-04T06:38:29.139Z,21.86
2023-05-04T06:39:29.218Z,21.85
2023-05-04T06:40:29.204Z,21.86
2023-05-04T06:41:29.146Z,21.86
2023-05-04T06:42:29.106Z,21.85
2023-05-04T06:43:29.101Z,21.85
2023-05-04T06:44:29.089Z,21.85
2023-05-04T06:45:32.316Z,21.85
2023-05-04T06:46:29.151Z,21.86
2023-05-04T06:47:29.075Z,21.86
2023-05-04T06:48:29.120Z,21.86
2023-05-04T06:49:29.063Z,21.86
2023-05-04T06:50:29.052Z,21.86
2023-05-04T06:51:30.201Z,21.86
2023-05-04T06:52:45.748Z,21.86
2023-05-04T06:53:29.071Z,21.85
2023-05-04T06:54:29.129Z,21.86
2023-05-04T06:55:29.016Z,21.86
2023-05-04T06:56:29.014Z,21.86
2023-05-04T06:57:29.487Z,21.86
2023-05-04T06:58:28.998Z,21.86
2023-05-04T06:59:28.990Z,21.86
2023-05-04T07:00:29.335Z,21.86
2023-05-04T07:01:29.242Z,21.86
2023-05-04T07:02:28.979Z,21.86
2023-05-04T07:03:29.013Z,21.86
2023-05-04T07:04:29.950Z,21.86
2023-05-04T07:05:28.949Z,21.85
2023-05-04T07:06:28.933Z,21.86
2023-05-04T07:07:28.956Z,21.86
2023-05-04T07:08:28.921Z,21.86
2023-05-04T07:09:28.922Z,21.86
2023-05-04T07:10:28.919Z,21.86
2023-05-04T07:11:28.934Z,21.86
2023-05-04T07:12:28.984Z,21.86
2023-05-04T07:13:29.027Z,21.86
2023-05-04T07:14:29.065Z,21.86
2023-05-04T07:15:29.136Z,21.86
2023-05-04T07:16:29.240Z,21.86
2023-05-04T07:17:29.704Z,21.86
2023-05-04T07:18:29.337Z,21.87
2023-05-04T07:19:29.411Z,21.86
2023-05-04T07:20:29.471Z,21.86
2023-05-04T07:21:29.800Z,21.86
2023-05-04T07:22:29.621Z,21.85
2023-05-04T07:23:29.749Z,21.87
2023-05-04T07:24:29.723Z,21.87
2023-05-04T07:25:29.806Z,21.86
2023-05-04T07:26:30.171Z,21.86
2023-05-04T07:27:29.940Z,21.86
2023-05-04T07:28:29.975Z,21.87
2023-05-04T07:29:30.174Z,21.87
2023-05-04T07:30:31.313Z,21.87
2023-05-04T07:31:30.815Z,21.86
2023-05-04T07:32:45.848Z,21.87
2023-05-04T07:33:37.660Z,21.87
2023-05-04T07:34:44.537Z,21.87
2023-05-04T07:35:45.820Z,21.88
2023-05-04T07:36:30.704Z,21.89
2023-05-04T07:37:30.847Z,21.91
2023-05-04T07:38:33.430Z,21.92
2023-05-04T07:39:30.171Z,21.93
2023-05-04T07:40:31.187Z,21.95
2023-05-04T07:41:30.191Z,21.96
2023-05-04T07:42:31.168Z,21.97
2023-05-04T07:43:30.309Z,21.98
2023-05-04T07:44:31.687Z,21.99
2023-05-04T07:45:30.482Z,22.01
2023-05-04T07:46:30.391Z,22.03
2023-05-04T07:47:30.818Z,22.05
2023-05-04T07:48:30.721Z,22.06
2023-05-04T07:49:30.413Z,22.07
2023-05-04T07:50:30.436Z,21.94
2023-05-04T07:51:30.461Z,21.85
2023-05-04T07:52:30.492Z,21.85
2023-05-04T07:53:31.191Z,21.87
2023-05-04T07:54:30.529Z,21.90
2023-05-04T07:55:30.551Z,21.94
2023-05-04T07:56:30.626Z,21.97
2023-05-04T07:57:30.719Z,22.00
2023-05-04T07:58:31.190Z,22.03
2023-05-04T07:59:31.008Z,22.05
2023-05-04T08:00:30.815Z,22.08
2023-05-04T08:01:30.858Z,22.11
2023-05-04T08:02:31.254Z,22.14
2023-05-04T08:03:32.912Z,22.17
2023-05-04T08:04:30.915Z,22.18
2023-05-04T08:05:30.902Z,22.20
2023-05-04T08:06:30.890Z,22.21
2023-05-04T08:07:31.265Z,22.23
2023-05-04T08:08:30.874Z,22.24
2023-05-04T08:09:30.867Z,22.25
2023-05-04T08:10:30.949Z,22.27
2023-05-04T08:11:30.857Z,22.27
2023-05-04T08:12:30.869Z,22.29
2023-05-04T08:13:30.840Z,22.30
2023-05-04T08:14:30.836Z,22.31
2023-05-04T08:15:30.907Z,22.32
2023-05-04T08:16:30.835Z,22.33
2023-05-04T08:17:30.861Z,22.34
2023-05-04T08:18:30.813Z,22.34
2023-05-04T08:19:30.803Z,22.35
2023-05-04T08:20:30.791Z,22.36
2023-05-04T08:21:30.778Z,22.37
2023-05-04T08:22:31.248Z,22.38
2023-05-04T08:23:31.855Z,22.39
2023-05-04T08:24:30.748Z,22.40
2023-05-04T08:25:30.757Z,22.41
2023-05-04T08:26:30.798Z,22.41
2023-05-04T08:27:31.232Z,22.42
2023-05-04T08:28:30.737Z,22.43
2023-05-04T08:29:30.742Z,22.44
2023-05-04T08:30:31.270Z,22.45
2023-05-04T08:31:30.736Z,22.45
2023-05-04T08:32:33.200Z,22.47
2023-05-04T08:33:30.694Z,22.47
2023-05-04T08:34:30.701Z,22.48
2023-05-04T08:35:30.685Z,22.49
2023-05-04T08:36:31.687Z,22.49
2023-05-04T08:37:30.825Z,22.49
2023-05-04T08:38:38.062Z,22.50
2023-05-04T08:39:30.736Z,22.50
2023-05-04T08:40:30.676Z,22.51
2023-05-04T08:41:30.705Z,22.52
2023-05-04T08:42:30.701Z,22.53
2023-05-04T08:43:30.665Z,22.54
2023-05-04T08:44:30.719Z,22.56
2023-05-04T08:45:30.764Z,22.57
2023-05-04T08:46:30.613Z,22.57
2023-05-04T08:47:30.661Z,22.58
2023-05-04T08:48:30.594Z,22.58
2023-05-04T08:49:30.741Z,22.58
2023-05-04T08:50:30.582Z,22.59
2023-05-04T08:51:30.574Z,22.59
2023-05-04T08:52:30.585Z,22.59
2023-05-04T08:53:34.498Z,22.60
2023-05-04T08:54:30.534Z,22.59
2023-05-04T08:55:30.521Z,22.60
2023-05-04T08:56:30.514Z,22.61
2023-05-04T08:57:30.504Z,22.61
2023-05-04T08:58:30.841Z,22.61
2023-05-04T08:59:30.489Z,22.62
2023-05-04T09:00:30.494Z,22.62
2023-05-04T09:01:30.532Z,22.62
2023-05-04T09:02:30.531Z,22.62
2023-05-04T09:03:30.814Z,22.63
2023-05-04T09:04:30.460Z,22.64
2023-05-04T09:05:30.718Z,22.64
2023-05-04T09:06:30.446Z,22.65
2023-05-04T09:07:30.433Z,22.65
2023-05-04T09:08:30.433Z,22.65
2023-05-04T09:09:30.427Z,22.65
2023-05-04T09:10:30.427Z,22.65
2023-05-04T09:11:30.428Z,22.66
2023-05-04T09:12:30.434Z,22.65
2023-05-04T09:13:30.397Z,22.66
2023-05-04T09:14:30.508Z,22.67
2023-05-04T09:15:30.379Z,22.67
2023-05-04T09:16:30.381Z,22.67
2023-05-04T09:17:30.449Z,22.67
2023-05-04T09:18:30.759Z,22.68
2023-05-04T09:19:30.371Z,22.68
2023-05-04T09:20:30.374Z,22.68
2023-05-04T09:21:31.308Z,22.68
2023-05-04T09:22:30.377Z,22.69
2023-05-04T09:23:31.284Z,22.70
2023-05-04T09:24:31.380Z,22.70
2023-05-04T09:25:30.391Z,22.70
2023-05-04T09:26:30.354Z,22.70
2023-05-04T09:27:30.307Z,22.71
2023-05-04T09:28:33.978Z,22.71
2023-05-04T09:29:30.320Z,22.71
2023-05-04T09:30:30.477Z,22.72
2023-05-04T09:31:30.339Z,22.71
2023-05-04T09:32:30.325Z,22.73
2023-05-04T09:33:30.787Z,22.74
2023-05-04T09:34:30.273Z,22.75
2023-05-04T09:35:33.680Z,22.76
2023-05-04T09:36:33.504Z,22.77
2023-05-04T09:37:30.240Z,22.79
2023-05-04T09:38:30.781Z,22.79
2023-05-04T09:39:33.449Z,22.79
2023-05-04T09:40:31.261Z,22.79
2023-05-04T09:41:30.971Z,22.78
2023-05-04T09:42:30.213Z,22.78
2023-05-04T09:43:31.214Z,22.78
2023-05-04T09:44:30.257Z,22.80
2023-05-04T09:45:30.185Z,22.80
2023-05-04T09:46:30.261Z,22.80
2023-05-04T09:47:30.220Z,22.81
2023-05-04T09:48:30.235Z,22.80
2023-05-04T09:49:30.249Z,22.80
2023-05-04T09:50:30.290Z,22.80
2023-05-04T09:51:31.241Z,22.80
2023-05-04T09:52:31.385Z,22.81
2023-05-04T09:53:30.759Z,22.81
2023-05-04T09:54:30.540Z,22.81
2023-05-04T09:55:30.550Z,22.81
2023-05-04T09:56:30.636Z,22.81
2023-05-04T09:57:30.693Z,22.81
2023-05-04T09:58:30.781Z,22.81
2023-05-04T09:59:30.815Z,22.82
2023-05-04T10:00:30.847Z,22.83
2023-05-04T10:01:30.958Z,22.84
2023-05-04T10:02:31.165Z,22.85
2023-05-04T10:03:31.324Z,22.85
2023-05-04T10:04:31.293Z,22.85
2023-05-04T10:05:31.142Z,22.85
2023-05-04T10:06:31.176Z,22.85
2023-05-04T10:07:31.244Z,22.85
2023-05-04T10:08:31.307Z,22.84
2023-05-04T10:09:32.751Z,22.85
2023-05-04T10:10:31.438Z,22.84
2023-05-04T10:11:31.507Z,22.84
2023-05-04T10:12:31.585Z,22.84
2023-05-04T10:13:31.649Z,22.84
2023-05-04T10:14:31.782Z,22.86
2023-05-04T10:15:31.778Z,22.85
2023-05-04T10:16:31.906Z,22.86
2023-05-04T10:17:31.899Z,22.86
2023-05-04T10:18:32.293Z,22.86
2023-05-04T10:19:31.999Z,22.86
2023-05-04T10:20:32.065Z,22.88
2023-05-04T10:21:32.125Z,22.89
2023-05-04T10:22:32.259Z,22.89
2023-05-04T10:23:32.747Z,22.90
2023-05-04T10:24:32.315Z,22.92
2023-05-04T10:25:32.378Z,22.91
2023-05-04T10:26:32.444Z,22.91
2023-05-04T10:27:32.500Z,22.92
2023-05-04T10:28:32.746Z,22.92
2023-05-04T10:29:32.636Z,22.92
2023-05-04T10:30:32.682Z,22.92
2023-05-04T10:31:32.804Z,22.92
2023-05-04T10:32:32.828Z,22.91
2023-05-04T10:33:33.580Z,22.91
2023-05-04T10:34:33.007Z,22.91
2023-05-04T10:35:32.988Z,22.92
2023-05-04T10:36:33.040Z,22.91
2023-05-04T10:37:33.248Z,22.91
2023-05-04T10:38:33.257Z,22.92
2023-05-04T10:39:33.252Z,22.92
2023-05-04T10:40:33.267Z,22.92
2023-05-04T10:41:33.393Z,22.90
2023-05-04T10:42:33.753Z,22.90
2023-05-04T10:43:33.460Z,22.88
2023-05-04T10:44:33.759Z,22.87
2023-05-04T10:45:33.594Z,22.85
2023-05-04T10:46:33.660Z,22.83
2023-05-04T10:47:33.762Z,22.83
2023-05-04T10:48:33.710Z,22.82
2023-05-04T10:49:33.766Z,22.81
2023-05-04T10:50:33.763Z,22.80
2023-05-04T10:51:48.577Z,22.78
2023-05-04T10:52:33.754Z,22.79
2023-05-04T10:53:33.749Z,22.77
2023-05-04T10:54:33.758Z,22.76
2023-05-04T10:55:33.781Z,22.74
2023-05-04T10:56:33.722Z,22.76
2023-05-04T10:57:33.728Z,22.77
2023-05-04T10:58:33.703Z,22.77
2023-05-04T10:59:35.352Z,22.76
2023-05-04T11:00:33.714Z,22.74
2023-05-04T11:01:33.783Z,22.72
2023-05-04T11:02:33.819Z,22.73
2023-05-04T11:03:33.735Z,22.72
2023-05-04T11:04:33.677Z,22.72
2023-05-04T11:05:33.666Z,22.72
2023-05-04T11:06:33.682Z,22.72
2023-05-04T11:07:33.769Z,22.72
2023-05-04T11:08:33.644Z,22.74
2023-05-04T11:09:33.772Z,22.74
2023-05-04T11:10:33.642Z,22.77
2023-05-04T11:11:33.632Z,22.80
2023-05-04T11:12:33.686Z,22.83
2023-05-04T11:13:33.609Z,22.85
2023-05-04T11:14:33.779Z,22.89
2023-05-04T11:15:33.597Z,22.88
2023-05-04T11:16:33.636Z,22.89
2023-05-04T11:17:33.606Z,22.87
2023-05-04T11:18:33.591Z,22.86
2023-05-04T11:19:33.775Z,22.85
2023-05-04T11:20:33.559Z,22.83
2023-05-04T11:21:33.547Z,22.82
2023-05-04T11:22:33.582Z,22.81
2023-05-04T11:23:33.539Z,22.80
2023-05-04T11:24:33.771Z,22.78
2023-05-04T11:25:33.521Z,22.78
2023-05-04T11:26:33.517Z,22.76
2023-05-04T11:27:33.530Z,22.75
2023-05-04T11:28:33.533Z,22.74
2023-05-04T11:29:33.768Z,22.73
2023-05-04T11:30:33.522Z,22.72
2023-05-04T11:31:33.542Z,22.71
2023-05-04T11:32:33.486Z,22.70
2023-05-04T11:33:33.478Z,22.69
2023-05-04T11:34:33.471Z,22.69
2023-05-04T11:35:33.474Z,22.68
2023-05-04T11:36:33.467Z,22.68
2023-05-04T11:37:33.460Z,22.68
2023-05-04T11:38:33.474Z,22.67
2023-05-04T11:39:33.780Z,22.66
2023-05-04T11:40:33.430Z,22.66
2023-05-04T11:41:33.433Z,22.66
2023-05-04T11:42:33.416Z,22.65
2023-05-04T11:43:33.414Z,22.65
2023-05-04T11:44:33.413Z,22.65
2023-05-04T11:45:33.416Z,22.64
2023-05-04T11:46:33.439Z,22.64
2023-05-04T11:47:33.430Z,22.64
2023-05-04T11:48:33.388Z,22.63
2023-05-04T11:49:33.370Z,22.63
2023-05-04T11:50:33.369Z,22.62
2023-05-04T11:51:33.361Z,22.62
2023-05-04T11:52:33.356Z,22.61
2023-05-04T11:53:33.343Z,22.61
2023-05-04T11:54:33.391Z,22.61
2023-05-04T11:55:33.356Z,22.61
2023-05-04T11:56:33.315Z,22.59
2023-05-04T11:57:33.313Z,22.59
2023-05-04T11:58:33.315Z,22.59
2023-05-04T11:59:33.306Z,22.59
2023-05-04T12:00:33.300Z,22.58
2023-05-04T12:01:33.291Z,22.58
2023-05-04T12:02:33.345Z,22.58
2023-05-04T12:03:48.568Z,22.58
2023-05-04T12:04:33.266Z,22.57
2023-05-04T12:05:33.313Z,22.56
2023-05-04T12:06:33.360Z,22.57
2023-05-04T12:07:33.257Z,22.57
2023-05-04T12:08:33.288Z,22.56
2023-05-04T12:09:33.291Z,22.57
2023-05-04T12:10:33.254Z,22.57
2023-05-04T12:11:33.304Z,22.56
2023-05-04T12:12:33.511Z,22.56
2023-05-04T12:13:33.216Z,22.56
2023-05-04T12:14:33.348Z,22.55
2023-05-04T12:15:33.191Z,22.55
2023-05-04T12:16:33.247Z,22.55
2023-05-04T12:17:33.191Z,22.56
2023-05-04T12:18:33.166Z,22.55
2023-05-04T12:19:33.174Z,22.54
2023-05-04T12:20:33.161Z,22.55
2023-05-04T12:21:33.142Z,22.55
2023-05-04T12:22:33.142Z,22.54
2023-05-04T12:23:33.136Z,22.55
2023-05-04T12:24:33.123Z,22.53
2023-05-04T12:25:33.603Z,22.53
2023-05-04T12:26:33.172Z,22.54
2023-05-04T12:27:33.119Z,22.54
2023-05-04T12:28:33.100Z,22.53
2023-05-04T12:29:33.089Z,22.53
2023-05-04T12:30:33.303Z,22.53
2023-05-04T12:31:33.141Z,22.53
2023-05-04T12:32:33.133Z,22.53
2023-05-04T12:33:33.068Z,22.53
2023-05-04T12:34:33.300Z,22.53
2023-05-04T12:35:33.071Z,22.53
2023-05-04T12:36:34.035Z,22.53
2023-05-04T12:37:33.041Z,22.53
2023-05-04T12:38:33.039Z,22.53
2023-05-04T12:39:33.028Z,22.53
2023-05-04T12:40:33.035Z,22.54
2023-05-04T12:41:33.021Z,22.52
2023-05-04T12:42:33.095Z,22.53
2023-05-04T12:43:33.033Z,22.53
2023-05-04T12:44:33.308Z,22.52
2023-05-04T12:45:32.988Z,22.52
2023-05-04T12:46:33.027Z,22.52
2023-05-04T12:47:33.018Z,22.52
2023-05-04T12:48:33.192Z,22.52
2023-05-04T12:49:32.994Z,22.53
2023-05-04T12:50:33.004Z,22.52
2023-05-04T12:51:33.004Z,22.53
2023-05-04T12:52:33.049Z,22.52